createdAt,value
2023-04-02T00:52:00.852Z,4.3
2023-04-02T00:54:31.408Z,4.3
2023-04-02T01:40:12.048Z,4.2
2023-04-02T01:42:52.617Z,4.2
2023-04-02T01:47:53.326Z,4.2
2023-04-02T01:50:24.127Z,4.2
2023-04-02T01:52:54.680Z,4.2
2023-04-02T01:55:35.505Z,4.2
2023-04-02T01:58:06.250Z,4.1
2023-04-02T02:05:46.854Z,4.2
2023-04-02T02:08:17.470Z,4.1
2023-04-02T02:10:48.029Z,4.1
2023-04-02T02:13:28.609Z,4.1
2023-04-02T02:15:51.975Z,4.1
2023-04-02T02:18:22.664Z,4.1
2023-04-02T02:20:53.210Z,4.1
2023-04-02T02:23:33.768Z,4.1
2023-04-02T02:36:14.387Z,4.1
2023-04-02T02:38:45.040Z,4.1
2023-04-02T02:48:55.633Z,4.1
2023-04-02T02:51:26.211Z,4.1
2023-04-02T02:53:56.781Z,4.1
2023-04-02T02:56:37.367Z,4.1
2023-04-02T03:01:38.058Z,4.1
2023-04-02T03:09:08.783Z,4.1
2023-04-02T03:11:49.369Z,4.2
2023-04-02T03:14:19.947Z,4.2
2023-04-02T03:19:30.545Z,4.2
2023-04-02T03:27:11.207Z,4.2
2023-04-02T03:29:41.785Z,4.2
2023-04-02T03:32:12.387Z,4.2
2023-04-02T03:52:23.085Z,4.1
2023-04-02T03:55:03.641Z,4.1
2023-04-02T04:00:04.254Z,4.1
2023-04-02T04:02:34.962Z,4.1
2023-04-02T04:05:05.643Z,4.1
2023-04-02T04:10:16.217Z,4.1
2023-04-02T04:12:46.766Z,4.1
2023-04-02T04:15:17.348Z,4.1
2023-04-02T04:38:18.453Z,4.0
2023-04-02T04:40:49.044Z,4.0
2023-04-02T04:43:19.602Z,4.0
2023-04-02T04:50:50.186Z,4.0
2023-04-02T04:56:12.459Z,4.0
2023-04-02T05:13:47.132Z,4.0
2023-04-02T05:21:27.698Z,4.1
2023-04-02T05:39:08.375Z,4.1
2023-04-02T05:39:38.981Z,4.0
2023-04-02T05:41:49.584Z,4.0
2023-04-02T05:44:20.147Z,4.0
2023-04-02T05:46:50.767Z,4.0
2023-04-02T05:57:01.572Z,4.1
2023-04-02T06:09:52.705Z,4.2
2023-04-02T06:12:23.268Z,4.2
2023-04-02T06:14:53.838Z,4.2
2023-04-02T06:19:54.462Z,4.2
2023-04-02T06:35:05.032Z,4.3
2023-04-02T06:40:15.594Z,4.3
2023-04-02T06:45:16.214Z,4.4
2023-04-02T06:47:47.238Z,4.4
2023-04-02T08:03:58.150Z,4.9
2023-04-02T09:48:19.298Z,5.2
2023-04-02T09:50:49.859Z,5.2
2023-04-02T10:21:20.452Z,5.7
2023-04-02T10:41:41.036Z,5.8
2023-04-02T10:49:21.631Z,6.0
2023-04-02T10:56:52.401Z,6.2
2023-04-02T10:59:33.079Z,6.4
2023-04-02T11:02:03.724Z,6.4
2023-04-02T11:09:34.473Z,6.5
2023-04-02T11:22:25.081Z,6.4
2023-04-02T11:24:55.648Z,6.3
2023-04-02T11:27:36.235Z,6.2
2023-04-02T11:30:06.835Z,6.3
2023-04-02T11:32:37.601Z,6.1
2023-04-02T11:35:08.262Z,6.0
2023-04-02T11:37:38.849Z,5.5
2023-04-02T11:40:09.475Z,5.2
2023-04-02T11:42:50.056Z,5.1
2023-04-02T11:47:50.653Z,5.3
2023-04-02T11:50:21.626Z,5.3
2023-04-02T12:48:42.842Z,5.3
2023-04-02T12:51:13.416Z,5.2
2023-04-02T13:09:13.982Z,5.6
2023-04-02T13:31:54.599Z,5.4
2023-04-02T13:49:45.218Z,4.5
2023-04-02T13:54:55.771Z,4.5
2023-04-02T13:59:56.356Z,4.4
2023-04-02T14:02:26.923Z,4.4
2023-04-02T14:10:07.615Z,4.3
2023-04-02T14:12:38.161Z,4.3
2023-04-02T14:15:08.758Z,4.5
2023-04-02T14:27:59.457Z,4.1
2023-04-02T14:30:30.032Z,4.1
2023-04-02T14:33:00.713Z,4.0
2023-04-02T14:35:41.303Z,4.1
2023-04-02T14:40:42.000Z,3.9
2023-04-02T14:43:12.641Z,3.9
2023-04-02T14:45:43.262Z,3.8
2023-04-02T14:48:14.016Z,3.9
2023-04-02T14:50:54.585Z,3.9
2023-04-02T14:53:25.118Z,3.9
2023-04-02T14:55:55.690Z,3.8
2023-04-02T14:58:26.244Z,3.7
2023-04-02T15:00:56.794Z,3.6
2023-04-02T15:03:12.063Z,3.6
2023-04-02T15:06:02.879Z,3.7
2023-04-02T15:08:33.456Z,3.8
2023-04-02T15:11:08.943Z,3.8
2023-04-02T15:13:39.490Z,3.6
2023-04-02T15:16:20.114Z,3.6
2023-04-02T15:21:20.938Z,3.5
2023-04-02T15:23:46.099Z,3.6
2023-04-02T15:26:16.687Z,3.7
2023-04-02T15:28:47.253Z,3.6
2023-04-02T15:31:36.015Z,3.6
2023-04-02T15:34:06.689Z,3.5
2023-04-02T15:36:37.275Z,3.4
2023-04-02T15:39:07.823Z,3.3
2023-04-02T15:41:38.425Z,3.2
2023-04-02T15:44:08.974Z,3.1
2023-04-02T15:46:49.543Z,3.1
2023-04-02T15:49:20.232Z,3.0
2023-04-02T15:51:50.810Z,3.0
2023-04-02T15:54:21.422Z,2.9
2023-04-02T15:56:52.095Z,2.9
2023-04-02T16:02:02.835Z,2.9
2023-04-02T16:04:33.440Z,2.9
2023-04-02T16:09:34.039Z,2.8
2023-04-02T16:12:04.587Z,2.8
2023-04-02T16:14:45.151Z,2.8
2023-04-02T16:17:24.180Z,2.7
2023-04-02T16:19:45.751Z,2.6
2023-04-02T16:22:16.329Z,2.6
2023-04-02T16:24:48.245Z,2.6
2023-04-02T16:27:18.816Z,2.6
2023-04-02T16:29:59.389Z,2.6
2023-04-02T16:32:29.955Z,2.7
2023-04-02T16:37:30.711Z,2.6
2023-04-02T16:47:41.297Z,2.6
2023-04-02T16:52:42.048Z,2.4
2023-04-02T16:55:12.654Z,2.4
2023-04-02T17:08:03.471Z,2.3
2023-04-02T17:18:14.235Z,2.2
2023-04-02T17:23:14.843Z,2.2
2023-04-02T17:25:43.481Z,2.1
2023-04-02T17:28:24.055Z,2.1
2023-04-02T17:30:54.619Z,2.1
2023-04-02T17:33:25.366Z,2.1
2023-04-02T17:35:55.971Z,2.0
2023-04-02T17:38:26.593Z,2.1
2023-04-02T17:40:57.171Z,2.1
2023-04-02T17:48:47.735Z,2.1
2023-04-02T17:51:18.317Z,2.1
2023-04-02T17:53:49.083Z,2.0
2023-04-02T17:56:29.649Z,2.0
2023-04-02T17:59:00.278Z,2.0
2023-04-02T18:04:00.831Z,1.9
2023-04-02T18:06:31.596Z,1.9
2023-04-02T18:09:02.159Z,1.9
2023-04-02T18:11:42.736Z,2.0
2023-04-02T18:14:13.314Z,1.9
2023-04-02T18:16:43.879Z,1.9
2023-04-02T18:19:14.452Z,1.9
2023-04-02T18:21:45.016Z,1.9
2023-04-02T18:24:15.583Z,1.9
2023-04-02T18:26:56.138Z,1.7
2023-04-02T18:29:26.700Z,1.7
2023-04-02T18:31:57.241Z,1.6
2023-04-02T18:34:27.789Z,1.5
2023-04-02T18:36:58.341Z,1.5
2023-04-02T18:39:28.907Z,1.5
2023-04-02T18:44:39.466Z,1.5
2023-04-02T18:47:10.047Z,1.5
2023-04-02T18:49:40.622Z,1.3
2023-04-02T18:52:11.207Z,1.3
2023-04-02T18:54:41.807Z,1.3
2023-04-02T18:57:22.408Z,1.2
2023-04-02T18:59:53.092Z,1.3
2023-04-02T19:02:23.696Z,1.2
2023-04-02T19:04:54.557Z,1.2
2023-04-02T19:07:25.115Z,1.1
2023-04-02T19:09:55.677Z,1.1
2023-04-02T19:12:36.212Z,1.1
2023-04-02T19:15:06.793Z,0.9
2023-04-02T19:17:37.349Z,0.7
2023-04-02T19:20:08.060Z,0.7
2023-04-02T19:25:18.618Z,0.6
2023-04-02T19:27:59.176Z,0.5
2023-04-02T19:30:29.745Z,0.5
2023-04-02T19:33:00.297Z,0.5
2023-04-02T19:38:00.904Z,0.4
2023-04-02T19:40:41.449Z,0.3
2023-04-02T19:43:12.049Z,0.3
2023-04-02T19:45:42.613Z,0.3
2023-04-02T19:48:13.188Z,0.3
2023-04-02T19:50:43.738Z,0.3
2023-04-02T19:53:14.300Z,0.2
2023-04-02T19:55:54.869Z,0.2
2023-04-02T19:58:25.520Z,0.3
2023-04-02T20:00:56.136Z,0.3
2023-04-02T20:05:56.939Z,0.2
2023-04-02T20:08:27.519Z,0.3
2023-04-02T20:11:08.117Z,0.2
2023-04-02T20:13:38.683Z,0.3
2023-04-02T20:16:09.310Z,0.3
2023-04-02T20:18:39.961Z,0.3
2023-04-02T20:21:10.590Z,0.3
2023-04-02T20:23:41.138Z,0.3
2023-04-02T20:26:21.698Z,0.3
2023-04-02T20:28:52.227Z,0.3
2023-04-02T20:31:22.930Z,0.2
2023-04-02T20:33:53.672Z,0.2
2023-04-02T20:36:24.894Z,0.2
2023-04-02T20:39:05.464Z,0.3
2023-04-02T20:41:36.165Z,0.3
2023-04-02T20:54:16.738Z,0.5
2023-04-02T20:56:47.297Z,0.5
2023-04-02T20:59:18.013Z,0.5
2023-04-02T21:01:48.636Z,0.6
2023-04-02T21:04:19.362Z,0.6
2023-04-02T21:06:50.021Z,0.5
2023-04-02T21:09:30.589Z,0.6
2023-04-02T21:14:41.191Z,0.7
2023-04-02T21:17:03.245Z,0.7
2023-04-02T21:19:33.852Z,0.9
2023-04-02T21:29:54.424Z,0.7
2023-04-02T21:32:25.005Z,0.7
2023-04-02T21:34:55.665Z,0.8
2023-04-02T21:37:36.285Z,0.7
2023-04-02T21:40:06.923Z,0.7
2023-04-02T21:42:37.692Z,0.7
2023-04-02T21:45:08.363Z,0.7
2023-04-02T21:47:38.999Z,0.7
2023-04-02T21:50:09.645Z,0.7
2023-04-02T21:52:50.222Z,0.6
2023-04-02T21:55:20.785Z,0.6
2023-04-02T21:57:51.358Z,0.6
2023-04-02T22:00:21.916Z,0.6
2023-04-02T22:02:52.636Z,0.6
2023-04-02T22:08:01.601Z,0.6
2023-04-02T22:15:32.171Z,0.4
2023-04-02T22:43:32.767Z,0.4
2023-04-02T23:01:13.395Z,0.7
2023-04-02T23:03:54.112Z,0.9
2023-04-02T23:06:24.685Z,0.9
2023-04-02T23:11:35.385Z,0.9
2023-04-02T23:14:05.914Z,1.0
2023-04-02T23:16:36.505Z,0.9
2023-04-02T23:24:17.122Z,1.0
2023-04-02T23:29:17.735Z,1.0
2023-04-02T23:31:48.375Z,1.1
2023-04-02T23:34:29.044Z,1.1
2023-04-02T23:36:59.630Z,1.1
2023-04-02T23:39:30.214Z,1.1
2023-04-02T23:42:00.771Z,1.1
2023-04-02T23:47:01.384Z,1.2
2023-04-02T23:49:42.063Z,1.2
2023-04-02T23:52:12.680Z,1.2
2023-04-02T23:54:43.237Z,1.2
2023-04-02T23:59:43.814Z,1.2
